sensor_id;sensor_type;location;lat;lon;timestamp;P1;durP1;ratioP1;P2;durP2;ratioP2
72413;SDS011;60995;52.154;4.498;2023-02-25T00:02:13;30.15;;;4.18;;
72413;SDS011;60995;52.154;4.498;2023-02-25T00:04:30;27.65;;;3.17;;
72413;SDS011;60995;52.154;4.498;2023-02-25T00:06:47;17.15;;;3.17;;
72413;SDS011;60995;52.154;4.498;2023-02-25T00:09:03;28.38;;;3.85;;
72413;SDS011;60995;52.154;4.498;2023-02-25T00:11:26;32.60;;;4.13;;
72413;SDS011;60995;52.154;4.498;2023-02-25T00:13:52;23.88;;;3.70;;
72413;SDS011;60995;52.154;4.498;2023-02-25T00:16:11;21.92;;;3.13;;
72413;SDS011;60995;52.154;4.498;2023-02-25T00:18:29;11.23;;;2.70;;
72413;SDS011;60995;52.154;4.498;2023-02-25T00:20:46;16.92;;;2.30;;
72413;SDS011;60995;52.154;4.498;2023-02-25T00:23:02;12.48;;;2.13;;
72413;SDS011;60995;52.154;4.498;2023-02-25T00:25:18;13.48;;;2.33;;
72413;SDS011;60995;52.154;4.498;2023-02-25T00:27:35;12.93;;;2.28;;
72413;SDS011;60995;52.154;4.498;2023-02-25T00:29:52;15.98;;;2.30;;
72413;SDS011;60995;52.154;4.498;2023-02-25T00:32:09;14.68;;;2.22;;
72413;SDS011;60995;52.154;4.498;2023-02-25T00:34:26;23.42;;;2.75;;
72413;SDS011;60995;52.154;4.498;2023-02-25T00:36:43;18.63;;;2.70;;
72413;SDS011;60995;52.154;4.498;2023-02-25T00:39:11;19.27;;;2.85;;
72413;SDS011;60995;52.154;4.498;2023-02-25T00:41:28;17.65;;;2.53;;
72413;SDS011;60995;52.154;4.498;2023-02-25T00:43:49;12.90;;;2.35;;
72413;SDS011;60995;52.154;4.498;2023-02-25T00:46:14;21.65;;;3.08;;
72413;SDS011;60995;52.154;4.498;2023-02-25T00:48:30;21.25;;;3.10;;
72413;SDS011;60995;52.154;4.498;2023-02-25T00:50:46;22.58;;;3.28;;
72413;SDS011;60995;52.154;4.498;2023-02-25T00:53:03;21.38;;;3.30;;
72413;SDS011;60995;52.154;4.498;2023-02-25T00:55:19;23.02;;;3.65;;
72413;SDS011;60995;52.154;4.498;2023-02-25T00:57:35;23.35;;;2.72;;
72413;SDS011;60995;52.154;4.498;2023-02-25T00:59:51;19.85;;;2.78;;
72413;SDS011;60995;52.154;4.498;2023-02-25T01:02:08;17.48;;;2.38;;
72413;SDS011;60995;52.154;4.498;2023-02-25T01:04:24;17.92;;;2.97;;
72413;SDS011;60995;52.154;4.498;2023-02-25T01:06:40;24.08;;;2.75;;
72413;SDS011;60995;52.154;4.498;2023-02-25T01:08:57;21.52;;;3.08;;
72413;SDS011;60995;52.154;4.498;2023-02-25T01:13:43;22.85;;;2.90;;
72413;SDS011;60995;52.154;4.498;2023-02-25T01:16:00;20.08;;;3.20;;
72413;SDS011;60995;52.154;4.498;2023-02-25T01:18:17;19.35;;;3.20;;
72413;SDS011;60995;52.154;4.498;2023-02-25T01:20:38;18.25;;;2.75;;
72413;SDS011;60995;52.154;4.498;2023-02-25T01:22:55;23.25;;;3.08;;
72413;SDS011;60995;52.154;4.498;2023-02-25T01:25:12;24.75;;;3.53;;
72413;SDS011;60995;52.154;4.498;2023-02-25T01:27:30;27.75;;;3.42;;
72413;SDS011;60995;52.154;4.498;2023-02-25T01:29:47;20.17;;;3.08;;
72413;SDS011;60995;52.154;4.498;2023-02-25T01:32:05;26.95;;;3.55;;
72413;SDS011;60995;52.154;4.498;2023-02-25T01:34:26;19.60;;;3.50;;
72413;SDS011;60995;52.154;4.498;2023-02-25T01:36:44;28.00;;;3.85;;
72413;SDS011;60995;52.154;4.498;2023-02-25T01:39:02;22.52;;;3.35;;
72413;SDS011;60995;52.154;4.498;2023-02-25T01:41:20;26.90;;;3.60;;
72413;SDS011;60995;52.154;4.498;2023-02-25T01:43:36;24.63;;;3.05;;
72413;SDS011;60995;52.154;4.498;2023-02-25T01:45:53;26.70;;;3.83;;
72413;SDS011;60995;52.154;4.498;2023-02-25T01:48:12;28.73;;;3.55;;
72413;SDS011;60995;52.154;4.498;2023-02-25T01:50:43;30.10;;;5.47;;
72413;SDS011;60995;52.154;4.498;2023-02-25T01:53:24;21.30;;;2.95;;
72413;SDS011;60995;52.154;4.498;2023-02-25T01:55:50;15.23;;;2.60;;
72413;SDS011;60995;52.154;4.498;2023-02-25T01:58:07;22.52;;;2.83;;
72413;SDS011;60995;52.154;4.498;2023-02-25T02:00:24;23.35;;;3.55;;
72413;SDS011;60995;52.154;4.498;2023-02-25T02:02:44;14.68;;;2.17;;
72413;SDS011;60995;52.154;4.498;2023-02-25T02:05:04;19.85;;;2.78;;
72413;SDS011;60995;52.154;4.498;2023-02-25T02:07:22;16.45;;;2.83;;
72413;SDS011;60995;52.154;4.498;2023-02-25T02:09:41;11.15;;;2.10;;
72413;SDS011;60995;52.154;4.498;2023-02-25T02:12:10;16.02;;;2.17;;
72413;SDS011;60995;52.154;4.498;2023-02-25T02:14:28;14.27;;;2.10;;
72413;SDS011;60995;52.154;4.498;2023-02-25T02:20:14;17.92;;;2.30;;
72413;SDS011;60995;52.154;4.498;2023-02-25T02:28:40;25.58;;;3.15;;
72413;SDS011;60995;52.154;4.498;2023-02-25T02:44:56;19.15;;;2.60;;
72413;SDS011;60995;52.154;4.498;2023-02-25T02:47:33;17.73;;;2.40;;
72413;SDS011;60995;52.154;4.498;2023-02-25T02:50:17;15.60;;;2.25;;
72413;SDS011;60995;52.154;4.498;2023-02-25T02:52:42;17.90;;;2.78;;
72413;SDS011;60995;52.154;4.498;2023-02-25T02:55:09;28.15;;;7.20;;
72413;SDS011;60995;52.154;4.498;2023-02-25T02:57:37;18.90;;;3.05;;
72413;SDS011;60995;52.154;4.498;2023-02-25T03:00:00;21.20;;;4.43;;
72413;SDS011;60995;52.154;4.498;2023-02-25T03:02:34;24.63;;;6.00;;
72413;SDS011;60995;52.154;4.498;2023-02-25T03:04:56;19.08;;;3.25;;
72413;SDS011;60995;52.154;4.498;2023-02-25T03:07:22;20.75;;;3.55;;
72413;SDS011;60995;52.154;4.498;2023-02-25T03:09:42;25.35;;;3.53;;
72413;SDS011;60995;52.154;4.498;2023-02-25T03:12:05;21.45;;;3.45;;
72413;SDS011;60995;52.154;4.498;2023-02-25T03:14:21;17.92;;;3.17;;
72413;SDS011;60995;52.154;4.498;2023-02-25T03:16:39;18.77;;;2.90;;
72413;SDS011;60995;52.154;4.498;2023-02-25T03:21:37;18.63;;;2.42;;
72413;SDS011;60995;52.154;4.498;2023-02-25T03:24:01;18.40;;;2.88;;
72413;SDS011;60995;52.154;4.498;2023-02-25T03:26:27;27.55;;;3.28;;
72413;SDS011;60995;52.154;4.498;2023-02-25T03:28:57;20.02;;;2.80;;
72413;SDS011;60995;52.154;4.498;2023-02-25T03:36:46;25.37;;;2.70;;
72413;SDS011;60995;52.154;4.498;2023-02-25T03:39:16;29.38;;;3.50;;
72413;SDS011;60995;52.154;4.498;2023-02-25T03:41:40;21.70;;;3.15;;
72413;SDS011;60995;52.154;4.498;2023-02-25T03:44:10;24.05;;;3.13;;
72413;SDS011;60995;52.154;4.498;2023-02-25T03:46:32;23.65;;;3.05;;
72413;SDS011;60995;52.154;4.498;2023-02-25T03:48:51;30.10;;;4.07;;
72413;SDS011;60995;52.154;4.498;2023-02-25T03:51:09;26.10;;;3.55;;
72413;SDS011;60995;52.154;4.498;2023-02-25T03:53:30;27.35;;;3.45;;
72413;SDS011;60995;52.154;4.498;2023-02-25T03:55:49;27.10;;;3.83;;
72413;SDS011;60995;52.154;4.498;2023-02-25T03:58:06;29.77;;;3.97;;
72413;SDS011;60995;52.154;4.498;2023-02-25T04:00:25;29.17;;;3.72;;
72413;SDS011;60995;52.154;4.498;2023-02-25T04:02:45;27.58;;;3.28;;
72413;SDS011;60995;52.154;4.498;2023-02-25T04:05:02;20.98;;;3.00;;
72413;SDS011;60995;52.154;4.498;2023-02-25T04:07:19;22.02;;;3.20;;
72413;SDS011;60995;52.154;4.498;2023-02-25T04:09:36;17.48;;;2.63;;
72413;SDS011;60995;52.154;4.498;2023-02-25T04:11:54;18.90;;;2.65;;
72413;SDS011;60995;52.154;4.498;2023-02-25T04:14:11;17.60;;;2.10;;
72413;SDS011;60995;52.154;4.498;2023-02-25T04:16:28;16.60;;;2.85;;
72413;SDS011;60995;52.154;4.498;2023-02-25T04:18:44;17.77;;;2.38;;
72413;SDS011;60995;52.154;4.498;2023-02-25T04:21:00;20.00;;;2.33;;
72413;SDS011;60995;52.154;4.498;2023-02-25T04:23:17;15.68;;;2.55;;
72413;SDS011;60995;52.154;4.498;2023-02-25T04:25:33;24.63;;;2.55;;
72413;SDS011;60995;52.154;4.498;2023-02-25T04:27:50;13.40;;;2.53;;
72413;SDS011;60995;52.154;4.498;2023-02-25T04:30:06;18.52;;;2.33;;
72413;SDS011;60995;52.154;4.498;2023-02-25T04:32:24;20.35;;;2.75;;
72413;SDS011;60995;52.154;4.498;2023-02-25T04:34:41;22.83;;;2.50;;
72413;SDS011;60995;52.154;4.498;2023-02-25T04:36:57;19.95;;;2.55;;
72413;SDS011;60995;52.154;4.498;2023-02-25T04:39:17;20.42;;;2.47;;
72413;SDS011;60995;52.154;4.498;2023-02-25T04:41:34;26.52;;;3.53;;
72413;SDS011;60995;52.154;4.498;2023-02-25T04:43:51;17.38;;;2.22;;
72413;SDS011;60995;52.154;4.498;2023-02-25T04:46:07;16.67;;;3.00;;
72413;SDS011;60995;52.154;4.498;2023-02-25T04:48:24;21.35;;;3.00;;
72413;SDS011;60995;52.154;4.498;2023-02-25T04:50:40;21.75;;;3.50;;
72413;SDS011;60995;52.154;4.498;2023-02-25T04:52:58;23.67;;;3.20;;
72413;SDS011;60995;52.154;4.498;2023-02-25T04:55:16;19.65;;;2.45;;
72413;SDS011;60995;52.154;4.498;2023-02-25T04:57:33;16.38;;;2.75;;
72413;SDS011;60995;52.154;4.498;2023-02-25T04:59:57;17.90;;;2.65;;
72413;SDS011;60995;52.154;4.498;2023-02-25T05:02:13;18.55;;;2.72;;
72413;SDS011;60995;52.154;4.498;2023-02-25T05:04:30;22.05;;;2.50;;
72413;SDS011;60995;52.154;4.498;2023-02-25T05:06:47;27.50;;;3.63;;
72413;SDS011;60995;52.154;4.498;2023-02-25T05:09:03;22.30;;;3.20;;
72413;SDS011;60995;52.154;4.498;2023-02-25T05:11:20;28.77;;;3.55;;
72413;SDS011;60995;52.154;4.498;2023-02-25T05:13:36;30.05;;;3.60;;
72413;SDS011;60995;52.154;4.498;2023-02-25T05:16:01;20.27;;;2.95;;
72413;SDS011;60995;52.154;4.498;2023-02-25T05:18:23;22.98;;;3.45;;
72413;SDS011;60995;52.154;4.498;2023-02-25T05:20:40;22.70;;;3.25;;
72413;SDS011;60995;52.154;4.498;2023-02-25T05:22:58;20.70;;;3.78;;
72413;SDS011;60995;52.154;4.498;2023-02-25T05:25:15;22.80;;;2.90;;
72413;SDS011;60995;52.154;4.498;2023-02-25T05:27:31;20.27;;;2.70;;
72413;SDS011;60995;52.154;4.498;2023-02-25T05:29:49;24.85;;;3.25;;
72413;SDS011;60995;52.154;4.498;2023-02-25T05:32:06;19.67;;;2.95;;
72413;SDS011;60995;52.154;4.498;2023-02-25T05:34:22;29.75;;;3.15;;
72413;SDS011;60995;52.154;4.498;2023-02-25T05:36:38;23.75;;;2.85;;
72413;SDS011;60995;52.154;4.498;2023-02-25T05:38:56;26.83;;;3.45;;
72413;SDS011;60995;52.154;4.498;2023-02-25T05:41:17;19.13;;;2.78;;
72413;SDS011;60995;52.154;4.498;2023-02-25T05:43:34;21.45;;;2.47;;
72413;SDS011;60995;52.154;4.498;2023-02-25T05:45:52;17.58;;;2.53;;
72413;SDS011;60995;52.154;4.498;2023-02-25T05:48:10;21.75;;;2.55;;
72413;SDS011;60995;52.154;4.498;2023-02-25T05:50:26;12.38;;;2.13;;
72413;SDS011;60995;52.154;4.498;2023-02-25T05:52:43;18.35;;;2.15;;
72413;SDS011;60995;52.154;4.498;2023-02-25T05:54:59;18.58;;;2.65;;
72413;SDS011;60995;52.154;4.498;2023-02-25T05:57:16;19.58;;;2.85;;
72413;SDS011;60995;52.154;4.498;2023-02-25T05:59:33;20.10;;;2.55;;
72413;SDS011;60995;52.154;4.498;2023-02-25T06:01:51;22.73;;;3.28;;
72413;SDS011;60995;52.154;4.498;2023-02-25T06:04:07;28.65;;;3.10;;
72413;SDS011;60995;52.154;4.498;2023-02-25T06:06:24;22.65;;;3.10;;
72413;SDS011;60995;52.154;4.498;2023-02-25T06:08:45;21.98;;;2.60;;
72413;SDS011;60995;52.154;4.498;2023-02-25T06:11:03;20.17;;;2.97;;
72413;SDS011;60995;52.154;4.498;2023-02-25T06:13:21;20.13;;;2.90;;
72413;SDS011;60995;52.154;4.498;2023-02-25T06:15:38;16.90;;;2.53;;
72413;SDS011;60995;52.154;4.498;2023-02-25T06:17:57;23.80;;;3.15;;
72413;SDS011;60995;52.154;4.498;2023-02-25T06:20:13;19.38;;;2.50;;
72413;SDS011;60995;52.154;4.498;2023-02-25T06:22:31;21.58;;;2.65;;
72413;SDS011;60995;52.154;4.498;2023-02-25T06:24:47;21.80;;;3.10;;
72413;SDS011;60995;52.154;4.498;2023-02-25T06:27:04;23.30;;;3.08;;
72413;SDS011;60995;52.154;4.498;2023-02-25T06:29:20;17.17;;;2.58;;
72413;SDS011;60995;52.154;4.498;2023-02-25T06:31:36;21.52;;;2.72;;
72413;SDS011;60995;52.154;4.498;2023-02-25T06:33:53;17.75;;;2.72;;
72413;SDS011;60995;52.154;4.498;2023-02-25T06:36:10;17.05;;;2.30;;
72413;SDS011;60995;52.154;4.498;2023-02-25T06:38:27;18.38;;;2.33;;
72413;SDS011;60995;52.154;4.498;2023-02-25T06:40:44;17.42;;;2.50;;
72413;SDS011;60995;52.154;4.498;2023-02-25T06:43:01;24.63;;;2.80;;
72413;SDS011;60995;52.154;4.498;2023-02-25T06:45:17;15.75;;;1.90;;
72413;SDS011;60995;52.154;4.498;2023-02-25T06:47:33;23.33;;;2.63;;
72413;SDS011;60995;52.154;4.498;2023-02-25T06:49:50;14.57;;;2.20;;
72413;SDS011;60995;52.154;4.498;2023-02-25T06:52:06;15.65;;;2.40;;
72413;SDS011;60995;52.154;4.498;2023-02-25T06:54:23;15.30;;;1.92;;
72413;SDS011;60995;52.154;4.498;2023-02-25T06:56:39;14.40;;;2.28;;
72413;SDS011;60995;52.154;4.498;2023-02-25T06:58:57;20.25;;;2.50;;
72413;SDS011;60995;52.154;4.498;2023-02-25T07:01:14;18.17;;;3.03;;
72413;SDS011;60995;52.154;4.498;2023-02-25T07:03:32;17.08;;;2.45;;
72413;SDS011;60995;52.154;4.498;2023-02-25T07:05:48;19.08;;;2.28;;
72413;SDS011;60995;52.154;4.498;2023-02-25T07:08:04;15.65;;;2.88;;
72413;SDS011;60995;52.154;4.498;2023-02-25T07:10:21;24.17;;;2.92;;
72413;SDS011;60995;52.154;4.498;2023-02-25T07:12:38;16.38;;;2.92;;
72413;SDS011;60995;52.154;4.498;2023-02-25T07:14:54;24.50;;;3.13;;
72413;SDS011;60995;52.154;4.498;2023-02-25T07:17:10;21.75;;;2.80;;
72413;SDS011;60995;52.154;4.498;2023-02-25T07:19:27;17.85;;;2.55;;
72413;SDS011;60995;52.154;4.498;2023-02-25T07:21:43;23.95;;;3.20;;
72413;SDS011;60995;52.154;4.498;2023-02-25T07:23:59;23.30;;;2.78;;
72413;SDS011;60995;52.154;4.498;2023-02-25T07:26:16;37.00;;;3.92;;
72413;SDS011;60995;52.154;4.498;2023-02-25T07:28:32;37.83;;;3.78;;
72413;SDS011;60995;52.154;4.498;2023-02-25T07:30:49;22.23;;;3.08;;
72413;SDS011;60995;52.154;4.498;2023-02-25T07:33:06;22.67;;;3.05;;
72413;SDS011;60995;52.154;4.498;2023-02-25T07:35:23;26.02;;;3.75;;
72413;SDS011;60995;52.154;4.498;2023-02-25T07:37:39;40.15;;;3.50;;
72413;SDS011;60995;52.154;4.498;2023-02-25T07:39:58;26.10;;;3.65;;
72413;SDS011;60995;52.154;4.498;2023-02-25T07:42:15;27.15;;;4.00;;
72413;SDS011;60995;52.154;4.498;2023-02-25T07:44:31;21.77;;;2.83;;
72413;SDS011;60995;52.154;4.498;2023-02-25T07:46:50;19.08;;;3.50;;
72413;SDS011;60995;52.154;4.498;2023-02-25T07:49:07;19.92;;;2.90;;
72413;SDS011;60995;52.154;4.498;2023-02-25T07:51:24;28.23;;;4.22;;
72413;SDS011;60995;52.154;4.498;2023-02-25T07:53:45;28.30;;;3.67;;
72413;SDS011;60995;52.154;4.498;2023-02-25T07:56:04;26.08;;;3.50;;
72413;SDS011;60995;52.154;4.498;2023-02-25T07:58:22;38.15;;;3.67;;
72413;SDS011;60995;52.154;4.498;2023-02-25T08:00:38;18.48;;;3.50;;
72413;SDS011;60995;52.154;4.498;2023-02-25T08:02:55;24.83;;;3.20;;
72413;SDS011;60995;52.154;4.498;2023-02-25T08:05:12;27.73;;;3.65;;
72413;SDS011;60995;52.154;4.498;2023-02-25T08:07:36;20.40;;;2.88;;
72413;SDS011;60995;52.154;4.498;2023-02-25T08:09:53;24.23;;;3.50;;
72413;SDS011;60995;52.154;4.498;2023-02-25T08:12:09;28.88;;;3.38;;
72413;SDS011;60995;52.154;4.498;2023-02-25T08:14:25;24.02;;;3.47;;
72413;SDS011;60995;52.154;4.498;2023-02-25T08:16:42;20.90;;;3.00;;
72413;SDS011;60995;52.154;4.498;2023-02-25T08:18:59;23.23;;;3.13;;
72413;SDS011;60995;52.154;4.498;2023-02-25T08:21:16;19.52;;;3.15;;
72413;SDS011;60995;52.154;4.498;2023-02-25T08:23:36;25.20;;;3.28;;
72413;SDS011;60995;52.154;4.498;2023-02-25T08:25:52;20.05;;;2.88;;
72413;SDS011;60995;52.154;4.498;2023-02-25T08:28:10;19.98;;;3.67;;
72413;SDS011;60995;52.154;4.498;2023-02-25T08:30:30;26.23;;;3.17;;
72413;SDS011;60995;52.154;4.498;2023-02-25T08:32:46;21.17;;;3.35;;
72413;SDS011;60995;52.154;4.498;2023-02-25T08:35:03;22.08;;;3.67;;
72413;SDS011;60995;52.154;4.498;2023-02-25T08:37:19;22.92;;;3.42;;
72413;SDS011;60995;52.154;4.498;2023-02-25T08:39:43;21.85;;;3.25;;
72413;SDS011;60995;52.154;4.498;2023-02-25T08:42:02;21.63;;;3.00;;
72413;SDS011;60995;52.154;4.498;2023-02-25T08:44:19;30.42;;;3.60;;
72413;SDS011;60995;52.154;4.498;2023-02-25T08:46:36;23.08;;;3.40;;
72413;SDS011;60995;52.154;4.498;2023-02-25T08:48:56;30.95;;;3.53;;
72413;SDS011;60995;52.154;4.498;2023-02-25T08:51:16;21.77;;;3.70;;
72413;SDS011;60995;52.154;4.498;2023-02-25T08:53:38;25.85;;;3.40;;
72413;SDS011;60995;52.154;4.498;2023-02-25T08:55:55;26.55;;;3.33;;
72413;SDS011;60995;52.154;4.498;2023-02-25T08:58:41;26.15;;;3.72;;
72413;SDS011;60995;52.154;4.498;2023-02-25T09:01:04;23.42;;;3.22;;
72413;SDS011;60995;52.154;4.498;2023-02-25T09:03:27;29.40;;;4.05;;
72413;SDS011;60995;52.154;4.498;2023-02-25T09:05:49;25.25;;;4.00;;
72413;SDS011;60995;52.154;4.498;2023-02-25T09:08:10;29.70;;;4.07;;
72413;SDS011;60995;52.154;4.498;2023-02-25T09:10:26;24.77;;;3.40;;
72413;SDS011;60995;52.154;4.498;2023-02-25T09:12:43;21.98;;;3.90;;
72413;SDS011;60995;52.154;4.498;2023-02-25T09:15:00;22.35;;;3.08;;
72413;SDS011;60995;52.154;4.498;2023-02-25T09:17:16;14.90;;;2.17;;
72413;SDS011;60995;52.154;4.498;2023-02-25T09:19:33;16.15;;;2.55;;
72413;SDS011;60995;52.154;4.498;2023-02-25T09:21:53;15.82;;;2.20;;
72413;SDS011;60995;52.154;4.498;2023-02-25T09:24:09;16.40;;;2.25;;
72413;SDS011;60995;52.154;4.498;2023-02-25T09:26:25;11.65;;;2.17;;
72413;SDS011;60995;52.154;4.498;2023-02-25T09:28:42;15.38;;;2.42;;
72413;SDS011;60995;52.154;4.498;2023-02-25T09:30:59;13.35;;;2.40;;
72413;SDS011;60995;52.154;4.498;2023-02-25T09:33:17;13.75;;;2.95;;
72413;SDS011;60995;52.154;4.498;2023-02-25T09:35:33;16.15;;;2.63;;
72413;SDS011;60995;52.154;4.498;2023-02-25T09:37:52;13.38;;;2.55;;
72413;SDS011;60995;52.154;4.498;2023-02-25T09:40:09;15.73;;;2.50;;
72413;SDS011;60995;52.154;4.498;2023-02-25T09:42:51;12.55;;;2.72;;
72413;SDS011;60995;52.154;4.498;2023-02-25T09:45:23;18.10;;;2.63;;
72413;SDS011;60995;52.154;4.498;2023-02-25T09:47:43;16.58;;;2.90;;
72413;SDS011;60995;52.154;4.498;2023-02-25T09:50:11;17.60;;;3.03;;
72413;SDS011;60995;52.154;4.498;2023-02-25T09:52:40;14.27;;;2.65;;
72413;SDS011;60995;52.154;4.498;2023-02-25T09:55:04;21.73;;;3.33;;
72413;SDS011;60995;52.154;4.498;2023-02-25T09:57:24;17.80;;;3.65;;
72413;SDS011;60995;52.154;4.498;2023-02-25T09:59:41;13.73;;;2.67;;
72413;SDS011;60995;52.154;4.498;2023-02-25T10:01:59;14.60;;;2.50;;
72413;SDS011;60995;52.154;4.498;2023-02-25T10:07:23;17.73;;;2.78;;
72413;SDS011;60995;52.154;4.498;2023-02-25T10:26:37;13.07;;;1.98;;
72413;SDS011;60995;52.154;4.498;2023-02-25T10:29:07;18.17;;;2.13;;
72413;SDS011;60995;52.154;4.498;2023-02-25T10:31:38;12.73;;;2.20;;
72413;SDS011;60995;52.154;4.498;2023-02-25T10:34:13;10.48;;;1.55;;
72413;SDS011;60995;52.154;4.498;2023-02-25T10:36:42;9.98;;;1.90;;
72413;SDS011;60995;52.154;4.498;2023-02-25T10:39:05;13.50;;;1.88;;
72413;SDS011;60995;52.154;4.498;2023-02-25T10:41:25;8.75;;;1.70;;
72413;SDS011;60995;52.154;4.498;2023-02-25T10:43:42;8.98;;;1.58;;
72413;SDS011;60995;52.154;4.498;2023-02-25T10:46:10;7.35;;;2.15;;
72413;SDS011;60995;52.154;4.498;2023-02-25T10:48:57;13.77;;;1.70;;
72413;SDS011;60995;52.154;4.498;2023-02-25T10:51:17;7.93;;;1.55;;
72413;SDS011;60995;52.154;4.498;2023-02-25T10:53:36;10.10;;;1.67;;
72413;SDS011;60995;52.154;4.498;2023-02-25T10:56:11;9.02;;;1.55;;
72413;SDS011;60995;52.154;4.498;2023-02-25T10:58:44;10.07;;;1.80;;
72413;SDS011;60995;52.154;4.498;2023-02-25T11:01:20;8.40;;;1.50;;
72413;SDS011;60995;52.154;4.498;2023-02-25T11:03:43;11.15;;;1.98;;
72413;SDS011;60995;52.154;4.498;2023-02-25T11:06:22;9.43;;;1.52;;
72413;SDS011;60995;52.154;4.498;2023-02-25T11:08:51;9.32;;;1.50;;
72413;SDS011;60995;52.154;4.498;2023-02-25T11:11:16;7.78;;;1.90;;
72413;SDS011;60995;52.154;4.498;2023-02-25T11:13:59;10.13;;;1.80;;
72413;SDS011;60995;52.154;4.498;2023-02-25T11:16:19;14.88;;;2.08;;
72413;SDS011;60995;52.154;4.498;2023-02-25T11:18:36;10.10;;;1.50;;
72413;SDS011;60995;52.154;4.498;2023-02-25T11:20:56;10.05;;;1.60;;
72413;SDS011;60995;52.154;4.498;2023-02-25T11:23:23;8.77;;;1.55;;
72413;SDS011;60995;52.154;4.498;2023-02-25T11:25:48;12.95;;;1.77;;
72413;SDS011;60995;52.154;4.498;2023-02-25T11:31:23;13.00;;;1.55;;
72413;SDS011;60995;52.154;4.498;2023-02-25T11:34:04;10.00;;;2.17;;
72413;SDS011;60995;52.154;4.498;2023-02-25T11:36:38;11.27;;;1.60;;
72413;SDS011;60995;52.154;4.498;2023-02-25T11:42:20;11.27;;;1.75;;
72413;SDS011;60995;52.154;4.498;2023-02-25T11:44:53;8.02;;;1.63;;
72413;SDS011;60995;52.154;4.498;2023-02-25T11:47:24;7.80;;;1.63;;
72413;SDS011;60995;52.154;4.498;2023-02-25T11:50:01;8.73;;;1.80;;
72413;SDS011;60995;52.154;4.498;2023-02-25T11:52:54;11.38;;;1.40;;
72413;SDS011;60995;52.154;4.498;2023-02-25T12:20:58;7.97;;;1.65;;
72413;SDS011;60995;52.154;4.498;2023-02-25T12:29:02;11.32;;;1.80;;
72413;SDS011;60995;52.154;4.498;2023-02-25T12:37:07;8.38;;;1.50;;
72413;SDS011;60995;52.154;4.498;2023-02-25T13:02:03;14.65;;;1.85;;
72413;SDS011;60995;52.154;4.498;2023-02-25T13:30:12;11.20;;;2.30;;
72413;SDS011;60995;52.154;4.498;2023-02-25T13:38:27;6.78;;;1.40;;
72413;SDS011;60995;52.154;4.498;2023-02-25T13:54:25;13.90;;;2.25;;
72413;SDS011;60995;52.154;4.498;2023-02-25T14:05:23;12.88;;;2.25;;
72413;SDS011;60995;52.154;4.498;2023-02-25T14:07:59;12.48;;;1.88;;
72413;SDS011;60995;52.154;4.498;2023-02-25T14:22:20;12.05;;;2.05;;
72413;SDS011;60995;52.154;4.498;2023-02-25T14:27:47;12.40;;;1.70;;
72413;SDS011;60995;52.154;4.498;2023-02-25T14:38:25;6.65;;;1.67;;
72413;SDS011;60995;52.154;4.498;2023-02-25T14:44:18;15.30;;;2.85;;
72413;SDS011;60995;52.154;4.498;2023-02-25T14:46:54;12.68;;;2.65;;
72413;SDS011;60995;52.154;4.498;2023-02-25T15:00:33;10.77;;;1.83;;
72413;SDS011;60995;52.154;4.498;2023-02-25T15:03:41;10.05;;;1.80;;
72413;SDS011;60995;52.154;4.498;2023-02-25T15:08:54;8.75;;;1.92;;
72413;SDS011;60995;52.154;4.498;2023-02-25T15:14:48;12.15;;;1.67;;
72413;SDS011;60995;52.154;4.498;2023-02-25T15:18:00;14.82;;;1.90;;
72413;SDS011;60995;52.154;4.498;2023-02-25T15:20:36;9.90;;;1.60;;
72413;SDS011;60995;52.154;4.498;2023-02-25T15:23:16;13.38;;;1.98;;
72413;SDS011;60995;52.154;4.498;2023-02-25T15:31:09;10.85;;;2.03;;
72413;SDS011;60995;52.154;4.498;2023-02-25T15:33:43;10.95;;;1.83;;
72413;SDS011;60995;52.154;4.498;2023-02-25T15:38:40;11.88;;;3.33;;
72413;SDS011;60995;52.154;4.498;2023-02-25T15:40:56;14.95;;;2.40;;
72413;SDS011;60995;52.154;4.498;2023-02-25T15:45:34;13.75;;;2.00;;
72413;SDS011;60995;52.154;4.498;2023-02-25T15:53:02;13.70;;;2.63;;
72413;SDS011;60995;52.154;4.498;2023-02-25T15:55:26;10.52;;;2.13;;
72413;SDS011;60995;52.154;4.498;2023-02-25T15:57:50;13.52;;;2.20;;
72413;SDS011;60995;52.154;4.498;2023-02-25T16:00:18;14.35;;;2.05;;
72413;SDS011;60995;52.154;4.498;2023-02-25T16:03:23;8.98;;;2.80;;
72413;SDS011;60995;52.154;4.498;2023-02-25T16:05:43;14.55;;;4.45;;
72413;SDS011;60995;52.154;4.498;2023-02-25T16:08:11;11.85;;;2.25;;
72413;SDS011;60995;52.154;4.498;2023-02-25T16:10:44;13.57;;;1.80;;
72413;SDS011;60995;52.154;4.498;2023-02-25T16:13:11;13.05;;;1.88;;
72413;SDS011;60995;52.154;4.498;2023-02-25T16:15:37;11.32;;;2.00;;
72413;SDS011;60995;52.154;4.498;2023-02-25T16:17:58;10.57;;;2.10;;
72413;SDS011;60995;52.154;4.498;2023-02-25T16:20:41;9.57;;;1.55;;
72413;SDS011;60995;52.154;4.498;2023-02-25T16:23:03;12.77;;;2.42;;
72413;SDS011;60995;52.154;4.498;2023-02-25T16:25:33;10.27;;;2.50;;
72413;SDS011;60995;52.154;4.498;2023-02-25T16:30:59;11.95;;;1.88;;
72413;SDS011;60995;52.154;4.498;2023-02-25T16:33:33;8.65;;;1.90;;
72413;SDS011;60995;52.154;4.498;2023-02-25T16:36:18;10.98;;;2.05;;
72413;SDS011;60995;52.154;4.498;2023-02-25T16:39:14;9.73;;;2.17;;
72413;SDS011;60995;52.154;4.498;2023-02-25T16:41:36;8.77;;;1.77;;
72413;SDS011;60995;52.154;4.498;2023-02-25T16:43:53;12.65;;;2.10;;
72413;SDS011;60995;52.154;4.498;2023-02-25T16:46:19;10.00;;;1.98;;
72413;SDS011;60995;52.154;4.498;2023-02-25T16:51:10;10.13;;;2.28;;
72413;SDS011;60995;52.154;4.498;2023-02-25T16:53:43;9.15;;;1.88;;
72413;SDS011;60995;52.154;4.498;2023-02-25T16:56:02;12.27;;;2.05;;
72413;SDS011;60995;52.154;4.498;2023-02-25T17:00:47;11.35;;;2.00;;
72413;SDS011;60995;52.154;4.498;2023-02-25T17:03:14;11.13;;;1.83;;
72413;SDS011;60995;52.154;4.498;2023-02-25T17:05:32;12.77;;;2.58;;
72413;SDS011;60995;52.154;4.498;2023-02-25T17:07:53;14.93;;;2.88;;
72413;SDS011;60995;52.154;4.498;2023-02-25T17:10:22;13.02;;;2.45;;
72413;SDS011;60995;52.154;4.498;2023-02-25T17:12:45;13.40;;;2.60;;
72413;SDS011;60995;52.154;4.498;2023-02-25T17:15:04;14.18;;;2.67;;
72413;SDS011;60995;52.154;4.498;2023-02-25T17:17:36;11.77;;;2.35;;
72413;SDS011;60995;52.154;4.498;2023-02-25T17:19:57;17.33;;;4.70;;
72413;SDS011;60995;52.154;4.498;2023-02-25T17:22:20;10.95;;;2.83;;
72413;SDS011;60995;52.154;4.498;2023-02-25T17:24:39;16.23;;;3.40;;
72413;SDS011;60995;52.154;4.498;2023-02-25T17:26:56;17.60;;;2.63;;
72413;SDS011;60995;52.154;4.498;2023-02-25T17:29:13;12.00;;;2.38;;
72413;SDS011;60995;52.154;4.498;2023-02-25T17:31:33;13.63;;;2.67;;
72413;SDS011;60995;52.154;4.498;2023-02-25T17:34:17;15.45;;;2.83;;
72413;SDS011;60995;52.154;4.498;2023-02-25T17:36:40;15.60;;;2.30;;
72413;SDS011;60995;52.154;4.498;2023-02-25T17:38:58;13.00;;;2.38;;
72413;SDS011;60995;52.154;4.498;2023-02-25T17:41:19;17.13;;;3.22;;
72413;SDS011;60995;52.154;4.498;2023-02-25T17:43:37;12.25;;;2.30;;
72413;SDS011;60995;52.154;4.498;2023-02-25T17:45:57;19.35;;;6.05;;
72413;SDS011;60995;52.154;4.498;2023-02-25T17:50:50;11.95;;;2.30;;
72413;SDS011;60995;52.154;4.498;2023-02-25T17:53:26;12.05;;;2.55;;
72413;SDS011;60995;52.154;4.498;2023-02-25T17:55:53;14.35;;;2.38;;
72413;SDS011;60995;52.154;4.498;2023-02-25T17:58:13;11.55;;;2.25;;
72413;SDS011;60995;52.154;4.498;2023-02-25T18:00:38;15.48;;;3.08;;
72413;SDS011;60995;52.154;4.498;2023-02-25T18:05:42;13.75;;;2.35;;
72413;SDS011;60995;52.154;4.498;2023-02-25T18:08:14;13.63;;;2.53;;
72413;SDS011;60995;52.154;4.498;2023-02-25T18:12:53;24.75;;;7.05;;